sensor_id;sensor_type;location;lat;lon;timestamp;pressure;altitude;pressure_sealevel;temperature;humidity
78123;BME280;67376;44.802;10.332;2024-01-07T00:01:31;99354.34;;;18.95;43.00
78123;BME280;67376;44.802;10.332;2024-01-07T00:03:57;99358.66;;;18.96;42.99
78123;BME280;67376;44.802;10.332;2024-01-07T00:06:22;99363.81;;;18.98;43.00
78123;BME280;67376;44.802;10.332;2024-01-07T00:08:47;99353.00;;;18.98;42.92
78123;BME280;67376;44.802;10.332;2024-01-07T00:11:13;99350.81;;;18.95;43.22
78123;BME280;67376;44.802;10.332;2024-01-07T00:13:38;99358.38;;;18.93;43.08
78123;BME280;67376;44.802;10.332;2024-01-07T00:16:03;99353.78;;;18.93;43.62
78123;BME280;67376;44.802;10.332;2024-01-07T00:18:28;99351.63;;;18.95;43.90
78123;BME280;67376;44.802;10.332;2024-01-07T00:20:54;99358.09;;;18.94;43.11
78123;BME280;67376;44.802;10.332;2024-01-07T00:23:19;99355.09;;;18.91;43.45
78123;BME280;67376;44.802;10.332;2024-01-07T00:25:46;99352.41;;;18.91;43.58
78123;BME280;67376;44.802;10.332;2024-01-07T00:28:11;99350.25;;;18.93;43.13
78123;BME280;67376;44.802;10.332;2024-01-07T00:30:36;99347.56;;;18.93;42.80
78123;BME280;67376;44.802;10.332;2024-01-07T00:33:02;99347.81;;;18.91;42.91
78123;BME280;67376;44.802;10.332;2024-01-07T00:35:27;99359.44;;;18.92;43.40
78123;BME280;67376;44.802;10.332;2024-01-07T00:37:52;99356.44;;;18.88;43.19
78123;BME280;67376;44.802;10.332;2024-01-07T00:40:17;99354.56;;;18.89;43.13
78123;BME280;67376;44.802;10.332;2024-01-07T00:42:43;99355.38;;;18.89;43.97
78123;BME280;67376;44.802;10.332;2024-01-07T00:45:08;99353.44;;;18.85;43.31
78123;BME280;67376;44.802;10.332;2024-01-07T00:47:34;99351.28;;;18.87;43.25
78123;BME280;67376;44.802;10.332;2024-01-07T00:49:59;99362.38;;;18.85;44.17
78123;BME280;67376;44.802;10.332;2024-01-07T00:52:24;99354.50;;;18.84;43.28
78123;BME280;67376;44.802;10.332;2024-01-07T00:54:49;99361.03;;;18.88;43.02
78123;BME280;67376;44.802;10.332;2024-01-07T00:57:15;99361.03;;;18.88;43.60
78123;BME280;67376;44.802;10.332;2024-01-07T00:59:40;99359.16;;;18.88;43.42
78123;BME280;67376;44.802;10.332;2024-01-07T01:02:05;99362.09;;;18.87;43.98
78123;BME280;67376;44.802;10.332;2024-01-07T01:04:30;99367.78;;;18.85;44.03
78123;BME280;67376;44.802;10.332;2024-01-07T01:06:56;99366.16;;;18.84;44.01
78123;BME280;67376;44.802;10.332;2024-01-07T01:09:21;99360.47;;;18.86;43.22
78123;BME280;67376;44.802;10.332;2024-01-07T01:11:46;99375.63;;;18.87;44.01
78123;BME280;67376;44.802;10.332;2024-01-07T01:14:11;99374.81;;;18.86;43.24
78123;BME280;67376;44.802;10.332;2024-01-07T01:16:37;99373.19;;;18.85;43.25
78123;BME280;67376;44.802;10.332;2024-01-07T01:19:02;99366.97;;;18.85;43.12
78123;BME280;67376;44.802;10.332;2024-01-07T01:21:27;99375.88;;;18.85;43.06
78123;BME280;67376;44.802;10.332;2024-01-07T01:23:53;99378.59;;;18.85;43.20
78123;BME280;67376;44.802;10.332;2024-01-07T01:26:19;99377.47;;;18.81;43.38
78123;BME280;67376;44.802;10.332;2024-01-07T01:28:44;99378.81;;;18.78;43.25
78123;BME280;67376;44.802;10.332;2024-01-07T01:31:12;99381.00;;;18.82;43.16
78123;BME280;67376;44.802;10.332;2024-01-07T01:33:37;99373.44;;;18.84;43.28
78123;BME280;67376;44.802;10.332;2024-01-07T01:36:05;99373.41;;;18.78;44.03
78123;BME280;67376;44.802;10.332;2024-01-07T01:38:31;99378.56;;;18.80;43.54
78123;BME280;67376;44.802;10.332;2024-01-07T01:40:56;99374.47;;;18.77;44.08
78123;BME280;67376;44.802;10.332;2024-01-07T01:43:24;99381.50;;;18.78;43.70
78123;BME280;67376;44.802;10.332;2024-01-07T01:45:49;99383.97;;;18.80;43.36
78123;BME280;67376;44.802;10.332;2024-01-07T01:48:14;99388.84;;;18.83;43.93
78123;BME280;67376;44.802;10.332;2024-01-07T01:50:40;99384.50;;;18.82;43.60
78123;BME280;67376;44.802;10.332;2024-01-07T01:53:05;99385.03;;;18.79;43.29
78123;BME280;67376;44.802;10.332;2024-01-07T01:55:30;99383.16;;;18.79;43.09
78123;BME280;67376;44.802;10.332;2024-01-07T01:57:56;99393.97;;;18.79;43.28
78123;BME280;67376;44.802;10.332;2024-01-07T02:00:24;99386.91;;;18.78;43.32
78123;BME280;67376;44.802;10.332;2024-01-07T02:02:50;99385.03;;;18.79;43.32
78123;BME280;67376;44.802;10.332;2024-01-07T02:05:15;99390.47;;;18.84;43.13
78123;BME280;67376;44.802;10.332;2024-01-07T02:07:40;99391.81;;;18.82;43.36
78123;BME280;67376;44.802;10.332;2024-01-07T02:10:06;99389.09;;;18.82;43.09
78123;BME280;67376;44.802;10.332;2024-01-07T02:12:31;99399.66;;;18.83;43.48
78123;BME280;67376;44.802;10.332;2024-01-07T02:14:56;99391.56;;;18.83;43.79
78123;BME280;67376;44.802;10.332;2024-01-07T02:17:21;99398.28;;;18.80;43.11
78123;BME280;67376;44.802;10.332;2024-01-07T02:19:47;99391.81;;;18.82;43.98
78123;BME280;67376;44.802;10.332;2024-01-07T02:22:12;99393.16;;;18.79;43.06
78123;BME280;67376;44.802;10.332;2024-01-07T02:24:37;99395.53;;;18.75;44.08
78123;BME280;67376;44.802;10.332;2024-01-07T02:27:02;99389.84;;;18.72;43.35
78123;BME280;67376;44.802;10.332;2024-01-07T02:29:28;99392.28;;;18.73;43.04
78123;BME280;67376;44.802;10.332;2024-01-07T02:31:54;99387.94;;;18.72;43.96
78123;BME280;67376;44.802;10.332;2024-01-07T02:34:19;99393.34;;;18.72;43.33
78123;BME280;67376;44.802;10.332;2024-01-07T02:36:45;99388.72;;;18.68;43.15
78123;BME280;67376;44.802;10.332;2024-01-07T02:39:10;99392.53;;;18.72;43.39
78123;BME280;67376;44.802;10.332;2024-01-07T02:41:35;99386.00;;;18.68;43.22
78123;BME280;67376;44.802;10.332;2024-01-07T02:44:00;99381.44;;;18.68;43.37
78123;BME280;67376;44.802;10.332;2024-01-07T02:46:26;99387.66;;;18.69;43.92
78123;BME280;67376;44.802;10.332;2024-01-07T02:48:51;99391.47;;;18.73;43.93
78123;BME280;67376;44.802;10.332;2024-01-07T02:51:16;99388.50;;;18.74;44.05
78123;BME280;67376;44.802;10.332;2024-01-07T02:53:41;99383.06;;;18.69;44.18
78123;BME280;67376;44.802;10.332;2024-01-07T02:56:07;99387.91;;;18.67;43.45
78123;BME280;67376;44.802;10.332;2024-01-07T02:58:33;99388.72;;;18.68;43.17
78123;BME280;67376;44.802;10.332;2024-01-07T03:00:59;99379.78;;;18.67;44.19
78123;BME280;67376;44.802;10.332;2024-01-07T03:03:24;99384.13;;;18.68;43.83
78123;BME280;67376;44.802;10.332;2024-01-07T03:05:49;99390.09;;;18.70;43.98
78123;BME280;67376;44.802;10.332;2024-01-07T03:08:14;99387.13;;;18.72;43.26
78123;BME280;67376;44.802;10.332;2024-01-07T03:10:39;99384.94;;;18.69;44.13
78123;BME280;67376;44.802;10.332;2024-01-07T03:13:05;99384.13;;;18.68;43.17
78123;BME280;67376;44.802;10.332;2024-01-07T03:15:30;99383.06;;;18.69;43.21
78123;BME280;67376;44.802;10.332;2024-01-07T03:17:57;99390.09;;;18.70;43.57
78123;BME280;67376;44.802;10.332;2024-01-07T03:20:22;99385.75;;;18.69;43.12
78123;BME280;67376;44.802;10.332;2024-01-07T03:22:47;99384.69;;;18.70;43.17
78123;BME280;67376;44.802;10.332;2024-01-07T03:25:12;99389.53;;;18.68;43.32
78123;BME280;67376;44.802;10.332;2024-01-07T03:27:38;99383.31;;;18.68;43.08
78123;BME280;67376;44.802;10.332;2024-01-07T03:30:04;99394.63;;;18.65;43.66
78123;BME280;67376;44.802;10.332;2024-01-07T03:32:29;99390.88;;;18.66;44.00
78123;BME280;67376;44.802;10.332;2024-01-07T03:34:54;99388.41;;;18.64;44.20
78123;BME280;67376;44.802;10.332;2024-01-07T03:37:19;99393.81;;;18.64;43.70
78123;BME280;67376;44.802;10.332;2024-01-07T03:39:46;99397.09;;;18.66;44.30
78123;BME280;67376;44.802;10.332;2024-01-07T03:42:11;99393.00;;;18.64;43.74
78123;BME280;67376;44.802;10.332;2024-01-07T03:44:37;99398.16;;;18.65;43.95
78123;BME280;67376;44.802;10.332;2024-01-07T03:47:03;99397.03;;;18.61;43.40
78123;BME280;67376;44.802;10.332;2024-01-07T03:49:28;99397.03;;;18.61;44.16
78123;BME280;67376;44.802;10.332;2024-01-07T03:51:53;99393.25;;;18.62;43.31
78123;BME280;67376;44.802;10.332;2024-01-07T03:54:19;99388.94;;;18.61;43.93
78123;BME280;67376;44.802;10.332;2024-01-07T03:56:44;99395.41;;;18.60;43.27
78123;BME280;67376;44.802;10.332;2024-01-07T03:59:09;99396.72;;;18.58;43.50
78123;BME280;67376;44.802;10.332;2024-01-07T04:01:34;99399.75;;;18.61;44.00
78123;BME280;67376;44.802;10.332;2024-01-07T04:03:59;99397.53;;;18.58;44.35
78123;BME280;67376;44.802;10.332;2024-01-07T04:06:25;99407.03;;;18.61;43.18
78123;BME280;67376;44.802;10.332;2024-01-07T04:08:50;99408.34;;;18.58;43.50
78123;BME280;67376;44.802;10.332;2024-01-07T04:11:15;99411.63;;;18.60;44.23
78123;BME280;67376;44.802;10.332;2024-01-07T04:13:40;99410.03;;;18.64;43.33
78123;BME280;67376;44.802;10.332;2024-01-07T04:16:05;99398.59;;;18.57;43.54
78123;BME280;67376;44.802;10.332;2024-01-07T04:18:31;99404.56;;;18.59;43.76
78123;BME280;67376;44.802;10.332;2024-01-07T04:20:56;99403.53;;;18.60;44.05
78123;BME280;67376;44.802;10.332;2024-01-07T04:23:21;99397.53;;;18.58;43.38
78123;BME280;67376;44.802;10.332;2024-01-07T04:25:46;99404.81;;;18.58;43.38
78123;BME280;67376;44.802;10.332;2024-01-07T04:28:12;99402.75;;;18.65;43.09
78123;BME280;67376;44.802;10.332;2024-01-07T04:30:37;99403.25;;;18.62;43.54
78123;BME280;67376;44.802;10.332;2024-01-07T04:33:03;99403.53;;;18.60;44.11
78123;BME280;67376;44.802;10.332;2024-01-07T04:35:28;99408.59;;;18.57;44.18
78123;BME280;67376;44.802;10.332;2024-01-07T04:37:53;99409.97;;;18.59;43.17
78123;BME280;67376;44.802;10.332;2024-01-07T04:40:18;99403.19;;;18.57;44.18
78123;BME280;67376;44.802;10.332;2024-01-07T04:42:44;99412.66;;;18.59;43.82
78123;BME280;67376;44.802;10.332;2024-01-07T04:45:09;99414.06;;;18.62;43.14
78123;BME280;67376;44.802;10.332;2024-01-07T04:47:34;99418.59;;;18.56;44.19
78123;BME280;67376;44.802;10.332;2024-01-07T04:49:59;99426.13;;;18.54;43.11
78123;BME280;67376;44.802;10.332;2024-01-07T04:52:25;99434.25;;;18.54;44.39
78123;BME280;67376;44.802;10.332;2024-01-07T04:54:51;99432.09;;;18.56;43.23
78123;BME280;67376;44.802;10.332;2024-01-07T04:57:16;99427.75;;;18.55;43.35
78123;BME280;67376;44.802;10.332;2024-01-07T04:59:41;99432.59;;;18.53;43.43
78123;BME280;67376;44.802;10.332;2024-01-07T05:02:07;99436.38;;;18.52;44.20
78123;BME280;67376;44.802;10.332;2024-01-07T05:04:32;99439.66;;;18.54;43.32
78123;BME280;67376;44.802;10.332;2024-01-07T05:06:58;99438.31;;;18.57;44.26
78123;BME280;67376;44.802;10.332;2024-01-07T05:09:23;99432.34;;;18.55;43.56
78123;BME280;67376;44.802;10.332;2024-01-07T05:11:49;99433.69;;;18.52;43.35
78123;BME280;67376;44.802;10.332;2024-01-07T05:14:14;99433.38;;;18.48;43.88
78123;BME280;67376;44.802;10.332;2024-01-07T05:16:39;99430.66;;;18.48;43.90
78123;BME280;67376;44.802;10.332;2024-01-07T05:19:04;99443.41;;;18.48;43.84
78123;BME280;67376;44.802;10.332;2024-01-07T05:21:30;99441.22;;;18.50;44.07
78123;BME280;67376;44.802;10.332;2024-01-07T05:23:55;99443.13;;;18.49;44.21
78123;BME280;67376;44.802;10.332;2024-01-07T05:26:21;99446.13;;;18.53;43.29
78123;BME280;67376;44.802;10.332;2024-01-07T05:28:46;99444.19;;;18.48;43.52
78123;BME280;67376;44.802;10.332;2024-01-07T05:31:15;99438.53;;;18.50;43.36
78123;BME280;67376;44.802;10.332;2024-01-07T05:33:40;99449.91;;;18.52;43.17
78123;BME280;67376;44.802;10.332;2024-01-07T05:36:05;99450.97;;;18.51;43.52
78123;BME280;67376;44.802;10.332;2024-01-07T05:38:31;99453.94;;;18.49;44.36
78123;BME280;67376;44.802;10.332;2024-01-07T05:40:56;99456.38;;;18.51;43.74
78123;BME280;67376;44.802;10.332;2024-01-07T05:43:21;99452.03;;;18.50;43.42
78123;BME280;67376;44.802;10.332;2024-01-07T05:45:46;99459.34;;;18.49;43.76
78123;BME280;67376;44.802;10.332;2024-01-07T05:48:12;99457.41;;;18.45;43.23
78123;BME280;67376;44.802;10.332;2024-01-07T05:50:37;99459.31;;;18.44;43.33
78123;BME280;67376;44.802;10.332;2024-01-07T05:53:02;99464.97;;;18.43;44.21
78123;BME280;67376;44.802;10.332;2024-01-07T05:55:27;99468.16;;;18.40;44.25
78123;BME280;67376;44.802;10.332;2024-01-07T05:57:53;99459.81;;;18.41;43.35
78123;BME280;67376;44.802;10.332;2024-01-07T06:00:18;99467.16;;;18.46;43.40
78123;BME280;67376;44.802;10.332;2024-01-07T06:02:43;99466.59;;;18.44;44.31
78123;BME280;67376;44.802;10.332;2024-01-07T06:05:08;99462.50;;;18.41;43.52
78123;BME280;67376;44.802;10.332;2024-01-07T06:07:33;99470.63;;;18.41;44.47
78123;BME280;67376;44.802;10.332;2024-01-07T06:09:59;99471.94;;;18.39;43.55
78123;BME280;67376;44.802;10.332;2024-01-07T06:12:24;99477.34;;;18.39;43.54
78123;BME280;67376;44.802;10.332;2024-01-07T06:14:50;99472.25;;;18.42;43.32
78123;BME280;67376;44.802;10.332;2024-01-07T06:17:15;99477.09;;;18.40;44.37
78123;BME280;67376;44.802;10.332;2024-01-07T06:19:40;99478.16;;;18.39;44.28
78123;BME280;67376;44.802;10.332;2024-01-07T06:22:05;99475.78;;;18.43;44.31
78123;BME280;67376;44.802;10.332;2024-01-07T06:24:31;99481.94;;;18.38;43.50
78123;BME280;67376;44.802;10.332;2024-01-07T06:26:56;99477.09;;;18.40;44.29
78123;BME280;67376;44.802;10.332;2024-01-07T06:29:21;99479.75;;;18.35;44.00
78123;BME280;67376;44.802;10.332;2024-01-07T06:31:46;99481.88;;;18.33;44.35
78123;BME280;67376;44.802;10.332;2024-01-07T06:34:13;99480.31;;;18.37;44.06
78123;BME280;67376;44.802;10.332;2024-01-07T06:36:39;99479.75;;;18.35;43.34
78123;BME280;67376;44.802;10.332;2024-01-07T06:39:04;99486.53;;;18.38;44.45
78123;BME280;67376;44.802;10.332;2024-01-07T06:41:30;99487.91;;;18.40;44.25
78123;BME280;67376;44.802;10.332;2024-01-07T06:43:55;99495.19;;;18.40;43.51
78123;BME280;67376;44.802;10.332;2024-01-07T06:46:22;99504.13;;;18.40;44.43
78123;BME280;67376;44.802;10.332;2024-01-07T06:48:47;99500.84;;;18.38;44.31
78123;BME280;67376;44.802;10.332;2024-01-07T06:51:13;99495.19;;;18.40;43.88
78123;BME280;67376;44.802;10.332;2024-01-07T06:53:39;99498.41;;;18.37;43.59
78123;BME280;67376;44.802;10.332;2024-01-07T06:56:04;99499.28;;;18.42;44.37
78123;BME280;67376;44.802;10.332;2024-01-07T06:58:29;99503.06;;;18.41;44.23
78123;BME280;67376;44.802;10.332;2024-01-07T07:00:54;99506.50;;;18.37;44.46
78123;BME280;67376;44.802;10.332;2024-01-07T07:03:20;99510.59;;;18.39;43.44
78123;BME280;67376;44.802;10.332;2024-01-07T07:05:45;99507.88;;;18.39;44.23
78123;BME280;67376;44.802;10.332;2024-01-07T07:08:10;99521.41;;;18.39;43.58
78123;BME280;67376;44.802;10.332;2024-01-07T07:10:35;99522.47;;;18.38;43.51
78123;BME280;67376;44.802;10.332;2024-01-07T07:13:01;99522.78;;;18.42;43.43
78123;BME280;67376;44.802;10.332;2024-01-07T07:15:26;99523.03;;;18.40;43.67
78123;BME280;67376;44.802;10.332;2024-01-07T07:17:53;99522.97;;;18.35;44.11
78123;BME280;67376;44.802;10.332;2024-01-07T07:20:18;99519.25;;;18.41;43.47
78123;BME280;67376;44.802;10.332;2024-01-07T07:22:44;99528.44;;;18.40;43.32
78123;BME280;67376;44.802;10.332;2024-01-07T07:25:10;99527.63;;;18.40;43.38
78123;BME280;67376;44.802;10.332;2024-01-07T07:27:35;99537.63;;;18.39;43.44
78123;BME280;67376;44.802;10.332;2024-01-07T07:30:00;99531.66;;;18.37;43.52
78123;BME280;67376;44.802;10.332;2024-01-07T07:32:25;99534.84;;;18.34;44.45
78123;BME280;67376;44.802;10.332;2024-01-07T07:34:51;99539.75;;;18.37;44.35
78123;BME280;67376;44.802;10.332;2024-01-07T07:37:16;99533.59;;;18.42;43.91
78123;BME280;67376;44.802;10.332;2024-01-07T07:39:41;99545.22;;;18.42;43.42
78123;BME280;67376;44.802;10.332;2024-01-07T07:42:06;99545.16;;;18.37;43.90
78123;BME280;67376;44.802;10.332;2024-01-07T07:44:32;99544.34;;;18.37;43.42
78123;BME280;67376;44.802;10.332;2024-01-07T07:46:57;99548.44;;;18.39;43.20
78123;BME280;67376;44.802;10.332;2024-01-07T07:49:22;99543.28;;;18.38;43.57
78123;BME280;67376;44.802;10.332;2024-01-07T07:51:47;99553.81;;;18.39;43.39
78123;BME280;67376;44.802;10.332;2024-01-07T07:54:13;99549.50;;;18.38;43.41
78123;BME280;67376;44.802;10.332;2024-01-07T07:56:38;99554.66;;;18.40;44.10
78123;BME280;67376;44.802;10.332;2024-01-07T07:59:03;99553.00;;;18.39;44.20
78123;BME280;67376;44.802;10.332;2024-01-07T08:01:28;99548.44;;;18.39;44.09
78123;BME280;67376;44.802;10.332;2024-01-07T08:03:54;99564.38;;;18.41;43.53
78123;BME280;67376;44.802;10.332;2024-01-07T08:06:19;99551.13;;;18.39;43.20
78123;BME280;67376;44.802;10.332;2024-01-07T08:08:44;99553.06;;;18.44;44.25
78123;BME280;67376;44.802;10.332;2024-01-07T08:11:10;99560.38;;;18.43;43.20
78123;BME280;67376;44.802;10.332;2024-01-07T08:13:35;99570.03;;;18.39;44.43
78123;BME280;67376;44.802;10.332;2024-01-07T08:16:01;99559.88;;;18.46;44.15
78123;BME280;67376;44.802;10.332;2024-01-07T08:18:26;99569.88;;;18.51;44.36
78123;BME280;67376;44.802;10.332;2024-01-07T08:20:52;99565.56;;;18.50;44.02
78123;BME280;67376;44.802;10.332;2024-01-07T08:23:17;99572.91;;;18.55;44.44
78123;BME280;67376;44.802;10.332;2024-01-07T08:25:42;99567.00;;;18.58;44.00
78123;BME280;67376;44.802;10.332;2024-01-07T08:28:10;99571.59;;;18.57;43.83
78123;BME280;67376;44.802;10.332;2024-01-07T08:30:35;99577.00;;;18.57;44.16
78123;BME280;67376;44.802;10.332;2024-01-07T08:33:00;99578.38;;;18.60;44.13
78123;BME280;67376;44.802;10.332;2024-01-07T08:35:25;99577.56;;;18.59;44.97
78123;BME280;67376;44.802;10.332;2024-01-07T08:37:51;99580.84;;;18.61;44.02
78123;BME280;67376;44.802;10.332;2024-01-07T08:40:16;99585.44;;;18.61;44.30
78123;BME280;67376;44.802;10.332;2024-01-07T08:42:44;99589.03;;;18.66;45.12
78123;BME280;67376;44.802;10.332;2024-01-07T08:45:09;99588.47;;;18.64;44.10
78123;BME280;67376;44.802;10.332;2024-01-07T08:47:34;99593.63;;;18.66;44.69
78123;BME280;67376;44.802;10.332;2024-01-07T08:50:01;99600.34;;;18.63;44.54
78123;BME280;67376;44.802;10.332;2024-01-07T08:52:26;99599.91;;;18.71;44.34
78123;BME280;67376;44.802;10.332;2024-01-07T08:54:51;99601.53;;;18.72;44.17
78123;BME280;67376;44.802;10.332;2024-01-07T08:57:17;99597.44;;;18.70;44.53
78123;BME280;67376;44.802;10.332;2024-01-07T08:59:42;99598.28;;;18.70;45.25
78123;BME280;67376;44.802;10.332;2024-01-07T09:02:07;99601.53;;;18.72;44.83
78123;BME280;67376;44.802;10.332;2024-01-07T09:04:32;99600.41;;;18.68;44.34
78123;BME280;67376;44.802;10.332;2024-01-07T09:06:58;99610.97;;;18.70;45.46
78123;BME280;67376;44.802;10.332;2024-01-07T09:09:24;99612.59;;;18.71;44.56
78123;BME280;67376;44.802;10.332;2024-01-07T09:11:49;99610.97;;;18.70;44.79
78123;BME280;67376;44.802;10.332;2024-01-07T09:14:14;99618.84;;;18.71;44.67
78123;BME280;67376;44.802;10.332;2024-01-07T09:16:40;99613.69;;;18.70;45.07
78123;BME280;67376;44.802;10.332;2024-01-07T09:19:05;99621.78;;;18.70;44.61
78123;BME280;67376;44.802;10.332;2024-01-07T09:21:30;99624.50;;;18.70;44.81
78123;BME280;67376;44.802;10.332;2024-01-07T09:23:55;99628.25;;;18.69;44.68
78123;BME280;67376;44.802;10.332;2024-01-07T09:26:20;99627.44;;;18.68;44.67
78123;BME280;67376;44.802;10.332;2024-01-07T09:28:46;99633.91;;;18.67;45.79
78123;BME280;67376;44.802;10.332;2024-01-07T09:31:11;99628.00;;;18.70;45.47
78123;BME280;67376;44.802;10.332;2024-01-07T09:33:36;99628.81;;;18.71;45.55
78123;BME280;67376;44.802;10.332;2024-01-07T09:36:01;99636.13;;;18.70;44.86
78123;BME280;67376;44.802;10.332;2024-01-07T09:38:27;99631.22;;;18.67;45.58
78123;BME280;67376;44.802;10.332;2024-01-07T09:40:52;99644.47;;;18.69;44.87
78123;BME280;67376;44.802;10.332;2024-01-07T09:43:18;99639.06;;;18.69;45.19
78123;BME280;67376;44.802;10.332;2024-01-07T09:45:45;99633.91;;;18.67;45.68
78123;BME280;67376;44.802;10.332;2024-01-07T09:48:11;99635.00;;;18.66;45.48
78123;BME280;67376;44.802;10.332;2024-01-07T09:50:36;99640.41;;;18.66;45.96
78123;BME280;67376;44.802;10.332;2024-01-07T09:53:02;99635.00;;;18.66;45.95
78123;BME280;67376;44.802;10.332;2024-01-07T09:55:31;99629.56;;;18.66;46.03
78123;BME280;67376;44.802;10.332;2024-01-07T09:57:57;99633.91;;;18.67;45.10
78123;BME280;67376;44.802;10.332;2024-01-07T10:00:24;99626.88;;;18.66;45.08
78123;BME280;67376;44.802;10.332;2024-01-07T10:02:49;99630.41;;;18.67;44.81
78123;BME280;67376;44.802;10.332;2024-01-07T10:05:14;99627.69;;;18.67;45.06
78123;BME280;67376;44.802;10.332;2024-01-07T10:07:40;99626.06;;;18.66;45.89
78123;BME280;67376;44.802;10.332;2024-01-07T10:10:14;99614.75;;;18.69;44.86
78123;BME280;67376;44.802;10.332;2024-01-07T10:12:40;99618.25;;;18.69;44.93
78123;BME280;67376;44.802;10.332;2024-01-07T10:15:05;99623.66;;;18.69;44.93
78123;BME280;67376;44.802;10.332;2024-01-07T10:17:30;99626.63;;;18.68;45.23
78123;BME280;67376;44.802;10.332;2024-01-07T10:19:56;99628.25;;;18.69;45.47
78123;BME280;67376;44.802;10.332;2024-01-07T10:22:21;99625.56;;;18.69;44.84
78123;BME280;67376;44.802;10.332;2024-01-07T10:24:46;99632.84;;;18.68;45.68
78123;BME280;67376;44.802;10.332;2024-01-07T10:27:14;99628.75;;;18.66;45.65
78123;BME280;67376;44.802;10.332;2024-01-07T10:29:39;99630.41;;;18.67;45.03
78123;BME280;67376;44.802;10.332;2024-01-07T10:32:04;99637.19;;;18.69;44.73
78123;BME280;67376;44.802;10.332;2024-01-07T10:34:31;99628.81;;;18.71;45.10
78123;BME280;67376;44.802;10.332;2024-01-07T10:36:56;99624.16;;;18.66;45.07
78123;BME280;67376;44.802;10.332;2024-01-07T10:39:23;99625.75;;;18.62;45.69
78123;BME280;67376;44.802;10.332;2024-01-07T10:41:48;99626.06;;;18.66;45.09
78123;BME280;67376;44.802;10.332;2024-01-07T10:44:15;99631.72;;;18.64;45.94
78123;BME280;67376;44.802;10.332;2024-01-07T10:46:40;99626.06;;;18.66;46.33
78123;BME280;67376;44.802;10.332;2024-01-07T10:49:10;99632.28;;;18.66;45.11
78123;BME280;67376;44.802;10.332;2024-01-07T10:51:40;99628.75;;;18.66;45.79
78123;BME280;67376;44.802;10.332;2024-01-07T10:54:06;99625.25;;;18.65;45.43
78123;BME280;67376;44.802;10.332;2024-01-07T10:56:34;99630.41;;;18.67;45.49
78123;BME280;67376;44.802;10.332;2024-01-07T10:59:03;99621.22;;;18.68;45.20
78123;BME280;67376;44.802;10.332;2024-01-07T11:01:29;99617.44;;;18.69;45.54
78123;BME280;67376;44.802;10.332;2024-01-07T11:03:57;99628.00;;;18.70;45.08
78123;BME280;67376;44.802;10.332;2024-01-07T11:06:30;99619.34;;;18.68;45.47
78123;BME280;67376;44.802;10.332;2024-01-07T11:09:16;99623.41;;;18.71;45.14
78123;BME280;67376;44.802;10.332;2024-01-07T11:11:43;99609.59;;;18.67;45.74
78123;BME280;67376;44.802;10.332;2024-01-07T11:16:53;99609.84;;;18.66;45.41
78123;BME280;67376;44.802;10.332;2024-01-07T11:19:19;99607.13;;;18.66;45.40
78123;BME280;67376;44.802;10.332;2024-01-07T11:21:45;99598.28;;;18.70;45.34
78123;BME280;67376;44.802;10.332;2024-01-07T11:24:27;99598.78;;;18.67;45.91
78123;BME280;67376;44.802;10.332;2024-01-07T11:27:00;99594.50;;;18.71;45.30
78123;BME280;67376;44.802;10.332;2024-01-07T11:29:26;99601.53;;;18.72;44.93
78123;BME280;67376;44.802;10.332;2024-01-07T11:31:51;99596.44;;;18.76;45.90
78123;BME280;67376;44.802;10.332;2024-01-07T11:37:01;99596.81;;;18.85;45.43
78123;BME280;67376;44.802;10.332;2024-01-07T11:39:26;99595.75;;;18.86;45.64
78123;BME280;67376;44.802;10.332;2024-01-07T11:41:52;99597.94;;;18.89;44.87
78123;BME280;67376;44.802;10.332;2024-01-07T11:44:17;99596.13;;;18.94;45.69
78123;BME280;67376;44.802;10.332;2024-01-07T11:46:42;99595.00;;;18.90;45.57
78123;BME280;67376;44.802;10.332;2024-01-07T11:49:08;99600.16;;;18.92;45.93
78123;BME280;67376;44.802;10.332;2024-01-07T11:51:33;99594.47;;;18.93;45.63
78123;BME280;67376;44.802;10.332;2024-01-07T11:54:00;99597.19;;;18.93;45.25
78123;BME280;67376;44.802;10.332;2024-01-07T11:56:26;99592.03;;;18.92;45.71
78123;BME280;67376;44.802;10.332;2024-01-07T11:58:51;99594.22;;;18.95;45.28
78123;BME280;67376;44.802;10.332;2024-01-07T12:01:17;99593.16;;;18.96;45.50
78123;BME280;67376;44.802;10.332;2024-01-07T12:03:43;99600.75;;;18.99;45.92
78123;BME280;67376;44.802;10.332;2024-01-07T12:06:09;99595.31;;;18.94;46.98
78123;BME280;67376;44.802;10.332;2024-01-07T12:08:38;99594.53;;;18.98;46.95
78123;BME280;67376;44.802;10.332;2024-01-07T12:11:03;99596.72;;;19.01;47.22
78123;BME280;67376;44.802;10.332;2024-01-07T12:13:29;99591.88;;;19.03;47.19
78123;BME280;67376;44.802;10.332;2024-01-07T12:15:56;99601.06;;;19.02;47.16
78123;BME280;67376;44.802;10.332;2024-01-07T12:18:21;99606.25;;;19.09;47.65
78123;BME280;67376;44.802;10.332;2024-01-07T12:20:56;99599.47;;;19.06;46.90
78123;BME280;67376;44.802;10.332;2024-01-07T12:23:22;99604.09;;;19.06;47.48
78123;BME280;67376;44.802;10.332;2024-01-07T12:25:48;99605.16;;;19.05;48.06
78123;BME280;67376;44.802;10.332;2024-01-07T12:28:13;99600.56;;;19.05;47.54
78123;BME280;67376;44.802;10.332;2024-01-07T12:30:38;99601.38;;;19.06;48.43
78123;BME280;67376;44.802;10.332;2024-01-07T12:33:04;99599.47;;;19.06;48.54
78123;BME280;67376;44.802;10.332;2024-01-07T12:35:30;99591.63;;;19.05;47.76
78123;BME280;67376;44.802;10.332;2024-01-07T12:37:55;99602.72;;;19.08;48.22
78123;BME280;67376;44.802;10.332;2024-01-07T12:40:21;99601.41;;;19.11;47.91
78123;BME280;67376;44.802;10.332;2024-01-07T12:42:46;99595.75;;;19.12;48.46
78123;BME280;67376;44.802;10.332;2024-01-07T12:45:12;99592.16;;;19.07;47.94
78123;BME280;67376;44.802;10.332;2024-01-07T12:47:41;99598.97;;;19.09;47.75